Time;durP1;ratioP1;P1;durP2;ratioP2;P2;SDS_P1;SDS_P2;PMS_P1;PMS_P2;Temp;Humidity;BMP_temperature;BMP_pressure;BME280_temperature;BME280_humidity;BME280_pressure;Samples;Min_cycle;Max_cycle;Signal;HPM_P1;HPM_P2
2022/06/01 00:01:22;;;;;;;3.63;2.60;;;;;;;13.67;71.26;99950.94;30990678;28;96719;-72
2022/06/01 00:16:23;;;;;;;4.10;2.93;;;;;;;13.19;74.27;99948.94;30989025;28;96762;-70
2022/06/01 00:31:23;;;;;;;4.00;2.50;;;;;;;13.02;76.28;99951.84;30987740;28;97473;-70
2022/06/01 00:46:23;;;;;;;4.13;2.42;;;;;;;13.03;77.36;99952.69;30986736;28;96902;-70
2022/06/01 01:01:25;;;;;;;2.90;2.40;;;;;;;13.10;77.67;99950.06;30984898;28;96672;-70
2022/06/01 01:16:26;;;;;;;3.70;2.43;;;;;;;13.01;78.52;99939.53;30982731;28;96726;-71
2022/06/01 01:31:27;;;;;;;4.60;2.87;;;;;;;13.05;78.60;99910.53;30982050;28;96917;-71
2022/06/01 01:46:29;;;;;;;3.58;2.65;;;;;;;13.03;79.29;99853.75;30981181;28;96759;-72
2022/06/01 02:01:45;;;;;;;3.37;2.23;;;;;;;12.92;79.88;99828.38;30980316;28;96710;-70
2022/06/01 02:17:01;;;;;;;3.33;2.40;;;;;;;12.78;79.19;99843.50;30978721;28;97015;-71
2022/06/01 02:32:03;;;;;;;5.40;3.67;;;;;;;12.38;79.72;99827.09;30988941;28;96648;-71
2022/06/01 02:47:04;;;;;;;5.97;4.20;;;;;;;12.13;80.87;99815.97;30996698;28;98207;-71
2022/06/01 03:02:06;;;;;;;8.93;5.40;;;;;;;11.83;81.88;99848.84;30994052;28;99410;-71
2022/06/01 03:17:06;;;;;;;6.63;5.27;;;;;;;11.72;82.80;99837.84;30992895;28;96663;-71
2022/06/01 03:32:07;;;;;;;5.40;4.60;;;;;;;11.57;82.94;99808.53;30991521;28;107739;-71
2022/06/01 03:47:11;;;;;;;9.10;4.97;;;;;;;11.64;83.31;99814.75;30988801;28;97324;-71
2022/06/01 04:02:12;;;;;;;7.57;4.47;;;;;;;11.72;83.40;99832.50;30987247;28;98683;-71
2022/06/01 04:17:12;;;;;;;7.00;4.38;;;;;;;11.96;83.43;99836.72;30984480;28;97230;-72
2022/06/01 04:32:16;;;;;;;5.45;4.55;;;;;;;12.14;83.16;99839.00;30984137;28;98348;-71
2022/06/01 04:47:18;;;;;;;5.17;3.77;;;;;;;12.53;82.93;99854.59;30982529;28;96773;-72
2022/06/01 05:02:19;;;;;;;4.13;3.07;;;;;;;13.04;82.72;99860.75;30967729;28;97946;-74
2022/06/01 05:17:19;;;;;;;6.35;3.67;;;;;;;13.81;81.56;99867.00;30974465;28;98053;-72
2022/06/01 05:32:20;;;;;;;3.08;2.05;;;;;;;14.41;78.69;99884.28;30984663;28;96793;-71
2022/06/01 05:47:21;;;;;;;4.57;2.10;;;;;;;14.89;75.92;99909.13;30975828;28;98198;-71
2022/06/01 06:02:21;;;;;;;4.22;2.25;;;;;;;15.44;73.77;99928.72;30981583;28;97281;-72
2022/06/01 06:17:21;;;;;;;5.20;2.45;;;;;;;16.15;71.12;99925.22;30969577;28;97756;-72
2022/06/01 06:32:22;;;;;;;4.22;2.70;;;;;;;16.62;66.46;99919.63;30972004;28;108810;-73
2022/06/01 06:47:22;;;;;;;5.00;3.53;;;;;;;17.13;63.45;99930.44;30972499;28;97635;-71
2022/06/01 07:02:23;;;;;;;4.78;3.13;;;;;;;17.64;61.53;99940.13;30979322;28;96970;-69
2022/06/01 07:17:25;;;;;;;4.40;2.60;;;;;;;18.64;58.72;99943.50;30979477;28;97508;-68
2022/06/01 07:32:25;;;;;;;4.07;2.60;;;;;;;20.28;54.74;99940.25;30989630;28;96767;-72
2022/06/01 07:47:27;;;;;;;6.38;2.13;;;;;;;20.53;51.75;99949.94;30988415;28;97268;-71
2022/06/01 08:02:27;;;;;;;5.27;2.57;;;;;;;20.08;51.09;99954.19;30985169;28;96829;-71
2022/06/01 08:17:27;;;;;;;3.28;2.30;;;;;;;20.57;49.49;99956.50;30975576;28;97792;-69
2022/06/01 08:32:28;;;;;;;4.15;2.95;;;;;;;21.59;45.71;99970.16;30972194;28;102267;-69
2022/06/01 08:47:34;;;;;;;5.78;2.50;;;;;;;21.74;44.26;99973.09;30984187;28;96716;-71
2022/06/01 09:02:47;;;;;;;3.03;1.80;;;;;;;23.66;40.48;99974.81;30983175;28;96681;-70
2022/06/01 09:17:48;;;;;;;3.50;1.93;;;;;;;23.36;36.39;99978.16;30981036;28;96780;-71
2022/06/01 09:33:14;;;;;;;4.40;1.48;;;;;;;24.87;34.24;99964.94;30980016;28;96853;-71
2022/06/01 09:48:29;;;;;;;4.60;1.40;;;;;;;25.44;30.91;99952.13;30976685;28;97255;-70
2022/06/01 10:18:51;;;;;;;2.50;1.10;;;;;;;25.13;30.01;99981.31;30976257;28;97377;-71
2022/06/01 10:34:01;;;;;;;3.03;1.37;;;;;;;23.94;31.50;100000.00;30974322;28;96659;-76
2022/06/01 10:49:10;;;;;;;2.20;1.40;;;;;;;22.51;33.28;100011.25;30979823;28;96656;-74
2022/06/01 11:04:35;;;;;;;2.73;1.47;;;;;;;21.68;37.03;100013.91;30994365;28;97168;-69
2022/06/01 11:19:56;;;;;;;4.43;1.50;;;;;;;23.27;35.37;99999.53;30991754;28;97380;-70
2022/06/01 11:35:18;;;;;;;2.83;1.70;;;;;;;22.75;34.08;99990.06;30986167;28;97211;-72
2022/06/01 11:50:26;;;;;;;2.03;1.40;;;;;;;21.70;36.89;99995.53;30987191;28;97001;-72
2022/06/01 12:06:13;;;;;;;3.30;1.90;;;;;;;21.58;39.64;100011.88;30989136;28;97189;-72
2022/06/01 12:21:29;;;;;;;3.17;1.43;;;;;;;21.68;37.29;99997.66;30986332;28;97464;-72
2022/06/01 12:37:03;;;;;;;2.83;1.63;;;;;;;23.07;35.26;99985.75;30986166;28;97076;-71
2022/06/01 12:52:08;;;;;;;2.90;1.53;;;;;;;22.44;33.66;99976.19;30983587;28;97498;-72
2022/06/01 13:07:08;;;;;;;4.67;1.73;;;;;;;21.95;34.22;99998.59;30981321;28;96962;-72
2022/06/01 13:22:28;;;;;;;8.47;1.50;;;;;;;21.92;34.89;99999.09;30979821;28;96826;-72
2022/06/01 13:37:30;;;;;;;5.13;1.53;;;;;;;22.30;34.34;100013.69;30906244;28;96914;-72
2022/06/01 13:52:31;;;;;;;3.67;1.60;;;;;;;21.79;34.30;100021.16;30977132;28;96748;-74
2022/06/01 14:07:43;;;;;;;2.07;1.30;;;;;;;21.52;35.25;100026.41;30965334;28;97603;-72
2022/06/01 14:22:44;;;;;;;2.03;1.03;;;;;;;20.86;35.87;100016.91;30894004;28;97354;-71
2022/06/01 14:37:47;;;;;;;1.73;1.10;;;;;;;21.07;35.73;100015.38;30980194;28;97512;-74
2022/06/01 14:52:48;;;;;;;3.67;1.20;;;;;;;21.10;35.10;99997.81;31002647;28;97544;-73
2022/06/01 15:07:48;;;;;;;2.97;1.30;;;;;;;20.98;35.55;99988.94;30991868;28;97031;-74
2022/06/01 15:22:49;;;;;;;3.45;1.17;;;;;;;20.77;34.78;99969.63;31023072;28;97816;-74
2022/06/01 15:53:10;;;;;;;2.23;1.10;;;;;;;20.64;34.08;99968.00;30989232;28;97215;-77
2022/06/01 16:08:11;;;;;;;3.97;1.20;;;;;;;20.72;34.95;99969.53;30983182;28;97630;-74
2022/06/01 16:23:12;;;;;;;1.30;1.00;;;;;;;20.70;35.11;99958.94;30982484;28;97346;-73
2022/06/01 16:38:12;;;;;;;;;;;;;;;20.57;35.70;99951.09;30977340;28;97404;-72
2022/06/01 16:53:13;;;;;;;2.63;1.35;;;;;;;20.39;36.62;99939.38;30982670;28;97076;-73
2022/06/01 17:08:13;;;;;;;2.83;1.33;;;;;;;20.34;37.16;99946.59;30975630;28;97406;-72
2022/06/01 17:23:14;;;;;;;4.45;1.33;;;;;;;20.19;37.54;99950.66;30973460;28;97045;-73
2022/06/01 17:38:15;;;;;;;5.67;2.30;;;;;;;19.99;38.17;99947.53;30976563;28;97766;-73
2022/06/01 17:53:15;;;;;;;3.00;1.73;;;;;;;19.61;39.01;99955.91;30976691;28;97021;-72
2022/06/01 18:08:22;;;;;;;6.85;1.50;;;;;;;19.34;39.90;99957.41;30977402;28;97268;-74
2022/06/01 18:23:27;;;;;;;5.47;1.47;;;;;;;18.84;41.39;99956.72;30969527;28;97659;-73
2022/06/01 18:38:27;;;;;;;5.07;2.70;;;;;;;18.32;43.15;99959.09;30963307;28;97312;-72
2022/06/01 18:53:29;;;;;;;6.10;2.50;;;;;;;17.75;44.91;99977.09;30963718;28;96793;-71
2022/06/01 19:08:30;;;;;;;10.17;2.67;;;;;;;17.41;46.11;100008.91;30965486;28;97002;-73
2022/06/01 19:23:31;;;;;;;2.83;1.93;;;;;;;16.95;46.12;100041.53;30983050;28;97324;-72
2022/06/01 19:53:52;;;;;;;3.30;1.73;;;;;;;15.82;49.50;100041.69;30915970;28;97593;-72
2022/06/01 20:08:52;;;;;;;8.07;1.77;;;;;;;15.36;51.25;100053.22;30977796;28;97574;-71
2022/06/01 20:23:53;;;;;;;3.17;2.17;;;;;;;14.93;52.97;100072.34;30976111;28;97328;-72
2022/06/01 20:38:55;;;;;;;4.63;2.60;;;;;;;14.79;54.83;100084.84;30958430;28;97491;-72
2022/06/01 20:53:55;;;;;;;6.47;2.37;;;;;;;14.81;55.52;100074.78;30861482;28;97627;-72
2022/06/01 21:08:56;;;;;;;4.30;2.92;;;;;;;14.84;55.54;100059.13;30968028;28;97238;-70
2022/06/01 21:23:56;;;;;;;3.55;2.35;;;;;;;14.91;56.25;100106.56;30996532;28;97816;-71
2022/06/01 21:38:57;;;;;;;5.00;2.80;;;;;;;14.96;58.07;100104.94;30980203;28;98704;-71
2022/06/01 21:53:58;;;;;;;5.47;3.42;;;;;;;14.90;59.37;100111.13;30980712;28;96677;-70
2022/06/01 22:08:58;;;;;;;5.90;2.97;;;;;;;14.74;60.24;100098.06;30979539;28;97217;-71
2022/06/01 22:23:59;;;;;;;10.63;3.40;;;;;;;14.36;60.94;100089.38;30978135;28;97976;-71
2022/06/01 22:39:00;;;;;;;3.80;2.80;;;;;;;14.40;61.50;100095.16;30977312;28;97308;-70
2022/06/01 22:54:01;;;;;;;4.63;2.90;;;;;;;14.47;61.76;100105.94;30994878;28;96803;-71
2022/06/01 23:09:01;;;;;;;8.07;2.92;;;;;;;14.43;61.88;100110.84;30995999;28;98137;-71
2022/06/01 23:24:04;;;;;;;3.92;2.83;;;;;;;14.42;61.76;100101.16;30995360;28;100516;-71
2022/06/01 23:39:21;;;;;;;6.47;2.93;;;;;;;14.42;61.91;100095.81;30994676;28;96756;-71
2022/06/01 23:54:40;;;;;;;8.33;3.30;;;;;;;14.12;62.35;100133.53;30988787;28;97227;-70
